createdAt,value
2019-04-28T00:00:13.791Z,88.70
2019-04-28T00:01:12.771Z,89.22
2019-04-28T00:02:12.773Z,88.90
2019-04-28T00:03:13.296Z,88.90
2019-04-28T00:04:12.767Z,88.90
2019-04-28T00:05:12.743Z,88.39
2019-04-28T00:06:12.723Z,87.98
2019-04-28T00:07:12.721Z,88.39
2019-04-28T00:08:12.733Z,89.11
2019-04-28T00:09:13.422Z,89.31
2019-04-28T00:10:12.679Z,89.31
2019-04-28T00:11:12.659Z,89.52
2019-04-28T00:12:12.669Z,90.03
2019-04-28T00:13:12.649Z,90.24
2019-04-28T00:14:12.638Z,90.34
2019-04-28T00:15:12.617Z,90.24
2019-04-28T00:16:12.607Z,90.14
2019-04-28T00:17:12.609Z,90.34
2019-04-28T00:18:12.597Z,90.34
2019-04-28T00:19:12.586Z,90.34
2019-04-28T00:20:12.811Z,90.45
2019-04-28T00:21:12.554Z,90.66
2019-04-28T00:22:12.555Z,90.55
2019-04-28T00:23:12.534Z,90.55
2019-04-28T00:24:12.533Z,90.55
2019-04-28T00:25:12.532Z,90.66
2019-04-28T00:26:12.503Z,90.75
2019-04-28T00:27:12.504Z,91.06
2019-04-28T00:28:12.495Z,91.38
2019-04-28T00:29:12.483Z,91.99
2019-04-28T00:30:12.471Z,92.40
2019-04-28T00:31:12.452Z,92.71
2019-04-28T00:32:12.441Z,92.82
2019-04-28T00:33:12.429Z,92.71
2019-04-28T00:34:12.421Z,92.82
2019-04-28T00:35:12.435Z,93.12
2019-04-28T00:36:12.400Z,92.82
2019-04-28T00:37:12.388Z,92.92
2019-04-28T00:38:13.072Z,93.12
2019-04-28T00:39:12.370Z,93.33
2019-04-28T00:40:12.366Z,93.43
2019-04-28T00:41:12.346Z,93.43
2019-04-28T00:42:12.335Z,93.43
2019-04-28T00:43:12.329Z,93.43
2019-04-28T00:44:12.316Z,93.33
2019-04-28T00:45:12.334Z,93.37
2019-04-28T00:46:12.544Z,93.48
2019-04-28T00:47:12.285Z,93.48
2019-04-28T00:48:12.283Z,93.58
2019-04-28T00:49:12.271Z,93.58
2019-04-28T00:50:12.260Z,93.48
2019-04-28T00:51:12.275Z,93.48
2019-04-28T00:52:12.234Z,93.48
2019-04-28T00:53:12.219Z,93.37
2019-04-28T00:54:12.346Z,93.58
2019-04-28T00:55:12.193Z,93.68
2019-04-28T00:56:12.200Z,93.99
2019-04-28T00:57:12.178Z,93.99
2019-04-28T00:58:12.171Z,93.48
2019-04-28T00:59:12.168Z,93.48
2019-04-28T01:00:12.157Z,93.68
2019-04-28T01:01:12.137Z,93.79
2019-04-28T01:02:12.118Z,93.99
2019-04-28T01:03:12.106Z,94.15
2019-04-28T01:04:12.106Z,94.36
2019-04-28T01:05:12.125Z,94.26
2019-04-28T01:06:14.102Z,94.15
2019-04-28T01:07:12.074Z,94.05
2019-04-28T01:08:12.054Z,93.95
2019-04-28T01:09:12.045Z,93.84
2019-04-28T01:10:12.035Z,93.84
2019-04-28T01:11:12.064Z,93.74
2019-04-28T01:12:12.022Z,93.64
2019-04-28T01:13:12.012Z,93.74
2019-04-28T01:14:11.993Z,93.64
2019-04-28T01:15:11.989Z,93.54
2019-04-28T01:16:11.980Z,93.33
2019-04-28T01:17:11.971Z,93.12
2019-04-28T01:18:11.951Z,93.23
2019-04-28T01:19:11.939Z,93.12
2019-04-28T01:20:11.931Z,93.02
2019-04-28T01:21:11.928Z,93.02
2019-04-28T01:22:11.925Z,92.82
2019-04-28T01:23:11.900Z,92.92
2019-04-28T01:24:11.888Z,92.82
2019-04-28T01:25:11.877Z,93.02
2019-04-28T01:26:11.887Z,93.02
2019-04-28T01:27:11.855Z,93.02
2019-04-28T01:28:11.846Z,92.92
2019-04-28T01:29:11.848Z,92.71
2019-04-28T01:30:11.824Z,92.71
2019-04-28T01:31:11.814Z,92.61
2019-04-28T01:32:11.813Z,92.71
2019-04-28T01:33:11.784Z,92.82
2019-04-28T01:34:11.783Z,93.12
2019-04-28T01:35:11.772Z,93.12
2019-04-28T01:36:11.761Z,92.82
2019-04-28T01:37:11.781Z,92.92
2019-04-28T01:38:12.288Z,93.02
2019-04-28T01:39:11.730Z,93.02
2019-04-28T01:40:11.720Z,93.02
2019-04-28T01:41:11.708Z,92.92
2019-04-28T01:42:11.709Z,93.02
2019-04-28T01:43:11.679Z,93.23
2019-04-28T01:44:11.672Z,93.12
2019-04-28T01:45:11.668Z,93.12
2019-04-28T01:46:11.647Z,93.12
2019-04-28T01:47:11.669Z,93.02
2019-04-28T01:48:11.626Z,92.92
2019-04-28T01:49:11.618Z,93.02
2019-04-28T01:50:11.608Z,93.02
2019-04-28T01:51:11.596Z,93.08
2019-04-28T01:52:11.603Z,92.46
2019-04-28T01:53:11.584Z,92.40
2019-04-28T01:54:11.725Z,92.50
2019-04-28T01:55:11.565Z,92.82
2019-04-28T01:56:11.550Z,93.33
2019-04-28T01:57:11.541Z,93.64
2019-04-28T01:58:11.536Z,93.64
2019-04-28T01:59:11.517Z,93.74
2019-04-28T02:00:22.212Z,93.74
2019-04-28T02:01:12.489Z,93.54
2019-04-28T02:02:11.481Z,93.74
2019-04-28T02:03:11.495Z,93.95
2019-04-28T02:04:11.460Z,94.15
2019-04-28T02:05:11.438Z,94.15
2019-04-28T02:06:11.439Z,94.36
2019-04-28T02:07:11.428Z,94.56
2019-04-28T02:08:11.438Z,94.36
2019-04-28T02:09:11.410Z,94.05
2019-04-28T02:10:11.406Z,94.15
2019-04-28T02:11:11.395Z,94.15
2019-04-28T02:12:11.386Z,94.26
2019-04-28T02:13:11.475Z,94.15
2019-04-28T02:14:11.363Z,94.36
2019-04-28T02:15:11.354Z,94.56
2019-04-28T02:16:11.343Z,94.67
2019-04-28T02:17:11.321Z,94.67
2019-04-28T02:18:11.314Z,94.77
2019-04-28T02:19:11.409Z,94.87
2019-04-28T02:20:11.292Z,94.87
2019-04-28T02:21:11.272Z,94.87
2019-04-28T02:22:11.271Z,95.08
2019-04-28T02:23:11.260Z,95.18
2019-04-28T02:24:11.261Z,95.08
2019-04-28T02:25:11.229Z,95.08
2019-04-28T02:26:11.239Z,94.87
2019-04-28T02:27:11.211Z,94.67
2019-04-28T02:28:11.848Z,94.77
2019-04-28T02:29:11.198Z,94.77
2019-04-28T02:30:11.763Z,94.56
2019-04-28T02:31:11.576Z,94.56
2019-04-28T02:32:11.156Z,94.67
2019-04-28T02:33:11.278Z,94.46
2019-04-28T02:34:11.308Z,94.46
2019-04-28T02:35:11.135Z,94.56
2019-04-28T02:36:12.303Z,94.46
2019-04-28T02:37:11.532Z,94.36
2019-04-28T02:38:11.559Z,94.36
2019-04-28T02:39:11.094Z,94.36
2019-04-28T02:40:11.084Z,94.36
2019-04-28T02:41:11.208Z,94.56
2019-04-28T02:42:11.283Z,94.46
2019-04-28T02:43:11.531Z,94.56
2019-04-28T02:44:11.036Z,94.77
2019-04-28T02:45:11.762Z,94.77
2019-04-28T02:46:11.013Z,94.67
2019-04-28T02:47:11.328Z,94.77
2019-04-28T02:48:11.143Z,94.67
2019-04-28T02:49:11.019Z,94.67
2019-04-28T02:50:11.331Z,94.60
2019-04-28T02:51:11.169Z,94.81
2019-04-28T02:52:10.953Z,94.81
2019-04-28T02:53:11.245Z,94.87
2019-04-28T02:54:10.947Z,94.77
2019-04-28T02:55:11.409Z,94.71
2019-04-28T02:56:11.337Z,94.77
2019-04-28T02:57:11.135Z,94.87
2019-04-28T02:58:13.327Z,94.98
2019-04-28T02:59:11.113Z,94.98
2019-04-28T03:00:10.868Z,94.98
2019-04-28T03:01:21.478Z,94.98
2019-04-28T03:02:11.848Z,94.98
2019-04-28T03:03:11.143Z,94.87
2019-04-28T03:04:12.389Z,94.98
2019-04-28T03:05:11.601Z,95.08
2019-04-28T03:06:10.952Z,94.98
2019-04-28T03:07:11.591Z,94.92
2019-04-28T03:08:11.265Z,94.81
2019-04-28T03:09:10.771Z,94.81
2019-04-28T03:10:11.260Z,94.92
2019-04-28T03:11:10.779Z,95.02
2019-04-28T03:12:11.437Z,95.12
2019-04-28T03:13:13.266Z,95.33
2019-04-28T03:14:11.209Z,95.28
2019-04-28T03:15:10.722Z,95.28
2019-04-28T03:16:10.974Z,95.23
2019-04-28T03:17:11.135Z,95.12
2019-04-28T03:18:11.533Z,95.12
2019-04-28T03:19:10.974Z,95.12
2019-04-28T03:20:11.077Z,95.28
2019-04-28T03:21:11.469Z,95.39
2019-04-28T03:22:11.567Z,95.39
2019-04-28T03:23:12.448Z,95.59
2019-04-28T03:24:11.017Z,95.59
2019-04-28T03:25:11.047Z,95.49
2019-04-28T03:26:11.289Z,95.49
2019-04-28T03:27:10.839Z,95.49
2019-04-28T03:28:12.057Z,95.70
2019-04-28T03:29:10.843Z,95.80
2019-04-28T03:30:13.239Z,95.90
2019-04-28T03:31:36.713Z,95.90
2019-04-28T03:32:30.049Z,96.00
2019-04-28T03:33:18.148Z,96.00
2019-04-28T03:34:12.920Z,96.11
2019-04-28T03:35:12.922Z,96.11
2019-04-28T03:36:15.532Z,96.11
2019-04-28T03:37:11.501Z,96.31
2019-04-28T03:38:10.785Z,96.21
2019-04-28T03:39:11.003Z,96.21
2019-04-28T03:40:11.480Z,96.21
2019-04-28T03:41:11.355Z,96.31
2019-04-28T03:42:11.684Z,96.31
2019-04-28T03:43:14.116Z,96.21
2019-04-28T03:44:11.420Z,96.21
2019-04-28T03:45:11.254Z,96.31
2019-04-28T03:46:10.578Z,96.31
2019-04-28T03:47:10.733Z,96.31
2019-04-28T03:48:11.485Z,96.11
2019-04-28T03:49:10.846Z,96.11
2019-04-28T03:50:10.668Z,96.11
2019-04-28T03:51:13.167Z,96.11
2019-04-28T03:52:10.885Z,96.00
2019-04-28T03:53:11.111Z,96.11
2019-04-28T03:54:10.409Z,96.00
2019-04-28T03:55:11.718Z,96.11
2019-04-28T03:56:11.407Z,96.11
2019-04-28T03:57:11.486Z,96.00
2019-04-28T03:58:10.512Z,95.90
2019-04-28T03:59:10.434Z,95.70
2019-04-28T04:00:10.937Z,95.80
2019-04-28T04:01:10.900Z,95.70
2019-04-28T04:02:11.364Z,95.80
2019-04-28T04:03:10.899Z,95.80
2019-04-28T04:04:11.295Z,95.80
2019-04-28T04:05:11.153Z,95.80
2019-04-28T04:06:10.575Z,95.59
2019-04-28T04:07:11.093Z,95.80
2019-04-28T04:08:11.039Z,95.90
2019-04-28T04:09:11.239Z,95.90
2019-04-28T04:10:11.626Z,96.00
2019-04-28T04:11:10.858Z,96.21
2019-04-28T04:12:11.146Z,96.31
2019-04-28T04:13:10.938Z,96.42
2019-04-28T04:14:11.406Z,96.52
2019-04-28T04:15:11.254Z,96.62
2019-04-28T04:16:10.432Z,96.62
2019-04-28T04:17:11.408Z,96.62
2019-04-28T04:18:11.022Z,96.72
2019-04-28T04:19:10.630Z,96.72
2019-04-28T04:20:11.034Z,96.72
2019-04-28T04:21:11.118Z,96.72
2019-04-28T04:22:10.198Z,96.72
2019-04-28T04:23:11.270Z,96.72
2019-04-28T04:24:10.864Z,96.72
2019-04-28T04:25:12.440Z,96.83
2019-04-28T04:26:11.683Z,96.83
2019-04-28T04:27:10.732Z,96.83
2019-04-28T04:28:10.545Z,96.83
2019-04-28T04:29:10.224Z,96.83
2019-04-28T04:30:10.803Z,96.83
2019-04-28T04:31:10.524Z,96.83
2019-04-28T04:32:19.120Z,96.62
2019-04-28T04:33:11.321Z,96.62
2019-04-28T04:34:10.699Z,96.72
2019-04-28T04:35:10.514Z,96.72
2019-04-28T04:36:11.471Z,96.62
2019-04-28T04:37:12.241Z,96.52
2019-04-28T04:38:10.553Z,96.52
2019-04-28T04:39:10.851Z,96.52
2019-04-28T04:40:13.072Z,96.52
2019-04-28T04:41:11.214Z,96.52
2019-04-28T04:42:10.507Z,96.62
2019-04-28T04:43:11.286Z,96.52
2019-04-28T04:44:11.160Z,96.52
2019-04-28T04:45:10.552Z,96.42
2019-04-28T04:46:10.706Z,96.42
2019-04-28T04:47:10.906Z,96.31
2019-04-28T04:48:11.595Z,96.31
2019-04-28T04:49:10.678Z,96.42
2019-04-28T04:50:11.320Z,96.42
2019-04-28T04:51:10.757Z,96.42
2019-04-28T04:52:10.494Z,96.37
2019-04-28T04:53:11.010Z,96.31
2019-04-28T04:54:10.865Z,96.17
2019-04-28T04:55:11.178Z,96.00
2019-04-28T04:56:10.481Z,95.90
2019-04-28T04:57:11.083Z,95.90
2019-04-28T04:58:10.730Z,95.80
2019-04-28T04:59:10.272Z,95.80
2019-04-28T05:00:10.120Z,95.90
2019-04-28T05:01:10.590Z,95.80
2019-04-28T05:02:11.330Z,95.80
2019-04-28T05:03:10.698Z,95.80
2019-04-28T05:04:09.660Z,95.90
2019-04-28T05:05:11.691Z,95.80
2019-04-28T05:06:10.045Z,95.80
2019-04-28T05:07:10.870Z,95.90
2019-04-28T05:08:10.710Z,96.00
2019-04-28T05:09:10.136Z,95.86
2019-04-28T05:10:10.571Z,95.86
2019-04-28T05:11:10.046Z,95.86
2019-04-28T05:12:09.729Z,95.65
2019-04-28T05:13:10.181Z,95.34
2019-04-28T05:14:11.668Z,95.34
2019-04-28T05:15:10.402Z,95.34
2019-04-28T05:16:09.772Z,95.14
2019-04-28T05:17:10.394Z,94.83
2019-04-28T05:18:10.149Z,94.68
2019-04-28T05:19:10.056Z,94.37
2019-04-28T05:20:09.860Z,94.07
2019-04-28T05:21:10.568Z,93.96
2019-04-28T05:22:10.153Z,94.11
2019-04-28T05:23:09.664Z,94.21
2019-04-28T05:24:15.622Z,94.31
2019-04-28T05:25:11.866Z,94.37
2019-04-28T05:26:11.316Z,94.31
2019-04-28T05:27:09.727Z,94.42
2019-04-28T05:28:10.464Z,94.73
2019-04-28T05:29:10.055Z,94.73
2019-04-28T05:30:10.721Z,94.83
2019-04-28T05:31:13.585Z,95.03
2019-04-28T05:32:10.756Z,95.14
2019-04-28T05:33:10.463Z,95.03
2019-04-28T05:34:11.499Z,94.93
2019-04-28T05:35:10.261Z,94.89
2019-04-28T05:36:09.880Z,95.09
2019-04-28T05:37:10.814Z,94.99
2019-04-28T05:38:09.951Z,94.89
2019-04-28T05:39:10.454Z,94.89
2019-04-28T05:40:10.457Z,94.74
2019-04-28T05:41:10.531Z,94.64
2019-04-28T05:42:09.712Z,94.39
2019-04-28T05:43:10.663Z,93.77
2019-04-28T05:44:10.038Z,93.05
2019-04-28T05:45:10.368Z,92.54
2019-04-28T05:46:10.647Z,92.44
2019-04-28T05:47:09.907Z,92.54
2019-04-28T05:48:11.291Z,92.54
2019-04-28T05:49:10.262Z,92.33
2019-04-28T05:50:10.646Z,91.78
2019-04-28T05:51:09.422Z,91.47
2019-04-28T05:52:11.700Z,91.47
2019-04-28T05:53:10.286Z,91.27
2019-04-28T05:54:09.873Z,91.16
2019-04-28T05:55:10.107Z,90.95
2019-04-28T05:56:10.326Z,91.20
2019-04-28T05:57:10.692Z,91.31
2019-04-28T05:58:09.869Z,91.51
2019-04-28T05:59:09.737Z,91.72
2019-04-28T06:00:10.750Z,91.82
2019-04-28T06:01:10.257Z,91.93
2019-04-28T06:02:10.581Z,91.97
2019-04-28T06:03:09.729Z,92.13
2019-04-28T06:04:09.403Z,91.93
2019-04-28T06:05:10.159Z,91.61
2019-04-28T06:06:10.218Z,91.06
2019-04-28T06:07:10.067Z,90.85
2019-04-28T06:08:10.026Z,90.34
2019-04-28T06:09:10.252Z,90.20
2019-04-28T06:10:10.174Z,89.69
2019-04-28T06:11:09.727Z,89.48
2019-04-28T06:12:10.305Z,89.13
2019-04-28T06:13:09.964Z,87.67
2019-04-28T06:14:09.937Z,82.63
2019-04-28T06:15:11.703Z,74.38
2019-04-28T06:16:09.564Z,70.45
2019-04-28T06:17:10.707Z,67.00
2019-04-28T06:18:10.422Z,66.66
2019-04-28T06:19:10.289Z,70.34
2019-04-28T06:20:11.588Z,73.50
2019-04-28T06:21:08.746Z,75.92
2019-04-28T06:22:08.706Z,78.75
2019-04-28T06:23:08.694Z,79.91
2019-04-28T06:24:08.686Z,80.66
2019-04-28T06:25:08.673Z,81.10
2019-04-28T06:26:08.681Z,81.62
2019-04-28T06:27:08.644Z,82.27
2019-04-28T06:28:08.664Z,83.23
2019-04-28T06:29:08.631Z,84.39
2019-04-28T06:30:08.616Z,84.44
2019-04-28T06:31:08.603Z,85.39
2019-04-28T06:32:08.593Z,86.32
2019-04-28T06:33:08.601Z,87.34
2019-04-28T06:34:08.571Z,87.76
2019-04-28T06:35:08.562Z,88.31
2019-04-28T06:36:08.563Z,88.82
2019-04-28T06:37:08.540Z,88.31
2019-04-28T06:38:08.539Z,89.23
2019-04-28T06:39:08.526Z,89.17
2019-04-28T06:40:08.508Z,89.17
2019-04-28T06:41:08.497Z,89.89
2019-04-28T06:42:08.495Z,90.26
2019-04-28T06:43:08.498Z,90.26
2019-04-28T06:44:08.467Z,89.43
2019-04-28T06:45:08.464Z,88.51
2019-04-28T06:46:08.450Z,88.00
2019-04-28T06:47:08.443Z,88.37
2019-04-28T06:48:08.451Z,87.61
2019-04-28T06:49:08.414Z,86.44
2019-04-28T06:50:08.403Z,85.38
2019-04-28T06:51:08.388Z,83.46
2019-04-28T06:52:08.383Z,81.95
2019-04-28T06:53:08.384Z,76.66
2019-04-28T06:54:08.362Z,73.60
2019-04-28T06:55:08.371Z,70.48
2019-04-28T06:56:08.340Z,71.09
2019-04-28T06:57:08.328Z,71.16
2019-04-28T06:58:08.320Z,68.66
2019-04-28T06:59:08.315Z,69.94
2019-04-28T07:00:08.319Z,69.53
2019-04-28T07:01:08.290Z,70.31
2019-04-28T07:02:08.278Z,72.08
2019-04-28T07:03:17.018Z,73.47
2019-04-28T07:04:09.250Z,74.08
2019-04-28T07:05:08.261Z,75.64
2019-04-28T07:06:08.247Z,75.13
2019-04-28T07:07:08.218Z,76.02
2019-04-28T07:08:08.216Z,76.56
2019-04-28T07:09:08.222Z,77.86
2019-04-28T07:10:08.187Z,74.82
2019-04-28T07:11:08.198Z,72.14
2019-04-28T07:12:08.165Z,66.19
2019-04-28T07:13:08.166Z,60.16
2019-04-28T07:14:08.146Z,59.03
2019-04-28T07:15:08.146Z,61.94
2019-04-28T07:16:08.137Z,65.88
2019-04-28T07:17:08.122Z,68.75
2019-04-28T07:18:08.109Z,71.56
2019-04-28T07:19:08.094Z,73.47
2019-04-28T07:20:08.083Z,73.84
2019-04-28T07:21:08.083Z,74.29
2019-04-28T07:22:08.062Z,75.92
2019-04-28T07:23:08.053Z,73.50
2019-04-28T07:24:08.053Z,75.41
2019-04-28T07:25:08.032Z,75.00
2019-04-28T07:26:08.024Z,75.61
2019-04-28T07:27:08.011Z,75.10
2019-04-28T07:28:08.011Z,75.27
2019-04-28T07:29:07.981Z,74.86
2019-04-28T07:30:07.971Z,75.20
2019-04-28T07:31:07.979Z,76.06
2019-04-28T07:32:07.951Z,77.31
2019-04-28T07:33:07.941Z,77.72
2019-04-28T07:34:07.936Z,77.83
2019-04-28T07:35:07.919Z,77.83
2019-04-28T07:36:07.928Z,77.14
2019-04-28T07:37:07.909Z,76.43
2019-04-28T07:38:07.917Z,75.78
2019-04-28T07:39:07.877Z,74.52
2019-04-28T07:40:07.878Z,74.90
2019-04-28T07:41:07.858Z,74.73
2019-04-28T07:42:07.846Z,75.78
2019-04-28T07:43:07.845Z,76.36
2019-04-28T07:44:07.846Z,76.16
2019-04-28T07:45:07.815Z,75.54
2019-04-28T07:46:07.805Z,75.75
2019-04-28T07:47:07.803Z,74.83
2019-04-28T07:48:07.782Z,76.67
2019-04-28T07:49:07.782Z,76.97
2019-04-28T07:50:07.772Z,76.77
2019-04-28T07:51:07.751Z,76.87
2019-04-28T07:52:07.739Z,76.77
2019-04-28T07:53:07.743Z,77.75
2019-04-28T07:54:07.731Z,78.16
2019-04-28T07:55:07.711Z,77.96
2019-04-28T07:56:07.700Z,76.32
2019-04-28T07:57:07.689Z,74.58
2019-04-28T07:58:07.680Z,71.94
2019-04-28T07:59:07.701Z,67.57
2019-04-28T08:00:07.660Z,70.65
2019-04-28T08:01:07.638Z,70.18
2019-04-28T08:02:07.650Z,70.75
2019-04-28T08:03:07.628Z,71.60
2019-04-28T08:04:07.616Z,71.60
2019-04-28T08:05:07.609Z,73.02
2019-04-28T08:06:07.587Z,73.26
2019-04-28T08:07:07.594Z,73.33
2019-04-28T08:08:07.577Z,74.59
2019-04-28T08:09:07.556Z,76.84
2019-04-28T08:10:07.563Z,76.84
2019-04-28T08:11:07.543Z,76.93
2019-04-28T08:12:07.526Z,76.22
2019-04-28T08:13:07.529Z,76.32
2019-04-28T08:14:07.512Z,76.02
2019-04-28T08:15:07.495Z,75.27
2019-04-28T08:16:07.485Z,76.50
2019-04-28T08:17:07.474Z,75.85
2019-04-28T08:18:07.473Z,74.21
2019-04-28T08:19:07.479Z,73.30
2019-04-28T08:20:07.451Z,73.60
2019-04-28T08:21:07.432Z,73.19
2019-04-28T08:22:07.432Z,73.81
2019-04-28T08:23:07.432Z,74.42
2019-04-28T08:24:07.399Z,74.52
2019-04-28T08:25:07.393Z,75.23
2019-04-28T08:26:07.389Z,74.38
2019-04-28T08:27:07.367Z,72.45
2019-04-28T08:28:07.359Z,72.14
2019-04-28T08:29:07.351Z,72.75
2019-04-28T08:30:07.348Z,72.55
2019-04-28T08:31:07.365Z,71.97
2019-04-28T08:32:07.318Z,72.31
2019-04-28T08:33:07.306Z,73.13
2019-04-28T08:34:07.316Z,73.88
2019-04-28T08:35:07.287Z,73.40
2019-04-28T08:36:07.280Z,74.01
2019-04-28T08:37:07.255Z,75.99
2019-04-28T08:38:07.276Z,75.71
2019-04-28T08:39:07.244Z,75.92
2019-04-28T08:40:07.233Z,78.11
2019-04-28T08:41:07.223Z,79.64
2019-04-28T08:42:07.233Z,79.02
2019-04-28T08:43:07.202Z,78.82
2019-04-28T08:44:07.187Z,79.74
2019-04-28T08:45:07.183Z,77.63
2019-04-28T08:46:07.171Z,78.34
2019-04-28T08:47:07.183Z,77.53
2019-04-28T08:48:07.154Z,78.28
2019-04-28T08:49:07.132Z,78.69
2019-04-28T08:50:07.131Z,79.10
2019-04-28T08:51:07.110Z,80.63
2019-04-28T08:52:07.110Z,80.63
2019-04-28T08:53:07.099Z,80.94
2019-04-28T08:54:07.088Z,80.77
2019-04-28T08:55:07.077Z,80.88
2019-04-28T08:56:07.067Z,81.79
2019-04-28T08:57:07.070Z,82.00
2019-04-28T08:58:07.036Z,82.31
2019-04-28T08:59:07.025Z,82.51
2019-04-28T09:00:07.017Z,82.92
2019-04-28T09:01:07.005Z,83.54
2019-04-28T09:02:07.018Z,83.64
2019-04-28T09:03:06.984Z,82.82
2019-04-28T09:04:15.087Z,83.03
2019-04-28T09:05:07.964Z,83.95
2019-04-28T09:06:06.954Z,83.44
2019-04-28T09:07:06.945Z,83.91
2019-04-28T09:08:06.942Z,82.98
2019-04-28T09:09:06.913Z,83.60
2019-04-28T09:10:06.911Z,82.89
2019-04-28T09:11:06.903Z,83.19
2019-04-28T09:12:06.902Z,81.96
2019-04-28T09:13:06.881Z,82.57
2019-04-28T09:14:06.870Z,83.19
2019-04-28T09:15:06.863Z,83.29
2019-04-28T09:16:06.848Z,82.78
2019-04-28T09:17:06.840Z,81.31
2019-04-28T09:18:06.820Z,81.62
2019-04-28T09:19:06.809Z,81.41
2019-04-28T09:20:06.816Z,80.49
2019-04-28T09:21:06.794Z,79.37
2019-04-28T09:22:06.778Z,80.49
2019-04-28T09:23:06.769Z,80.25
2019-04-28T09:24:06.759Z,79.74
2019-04-28T09:25:06.757Z,79.53
2019-04-28T09:26:06.735Z,78.31
2019-04-28T09:27:06.725Z,79.02
2019-04-28T09:28:06.715Z,78.07
2019-04-28T09:29:06.722Z,77.66
2019-04-28T09:30:06.705Z,77.86
2019-04-28T09:31:06.683Z,77.97
2019-04-28T09:32:06.683Z,77.93
2019-04-28T09:33:06.668Z,77.22
2019-04-28T09:34:06.655Z,77.28
2019-04-28T09:35:06.644Z,77.08
2019-04-28T09:36:06.655Z,75.44
2019-04-28T09:37:06.621Z,76.26
2019-04-28T09:38:06.620Z,75.10
2019-04-28T09:39:06.610Z,75.51
2019-04-28T09:40:06.590Z,75.41
2019-04-28T09:41:06.589Z,75.51
2019-04-28T09:42:06.568Z,75.37
2019-04-28T09:43:06.551Z,74.55
2019-04-28T09:44:06.549Z,75.37
2019-04-28T09:45:06.537Z,72.72
2019-04-28T09:46:06.519Z,72.17
2019-04-28T09:47:06.517Z,72.38
2019-04-28T09:48:06.508Z,71.36
2019-04-28T09:49:06.506Z,72.58
2019-04-28T09:50:06.484Z,73.30
2019-04-28T09:51:06.468Z,72.86
2019-04-28T09:52:06.475Z,71.73
2019-04-28T09:53:06.461Z,72.24
2019-04-28T09:54:06.436Z,73.16
2019-04-28T09:55:06.694Z,71.84
2019-04-28T09:56:06.426Z,71.94
2019-04-28T09:57:06.414Z,71.15
2019-04-28T09:58:06.436Z,69.53
2019-04-28T09:59:06.382Z,69.73
2019-04-28T10:00:06.372Z,72.11
2019-04-28T10:01:06.373Z,70.27
2019-04-28T10:02:06.352Z,71.19
2019-04-28T10:03:06.361Z,71.39
2019-04-28T10:04:06.331Z,72.17
2019-04-28T10:05:07.167Z,70.75
2019-04-28T10:06:06.312Z,68.51
2019-04-28T10:07:06.298Z,68.30
2019-04-28T10:08:06.291Z,69.29
2019-04-28T10:09:06.290Z,68.57
2019-04-28T10:10:06.260Z,69.70
2019-04-28T10:11:06.260Z,68.34
2019-04-28T10:12:06.548Z,66.94
2019-04-28T10:13:06.248Z,68.17
2019-04-28T10:14:06.218Z,68.37
2019-04-28T10:15:06.208Z,68.54
2019-04-28T10:16:06.209Z,67.83
2019-04-28T10:17:06.234Z,67.12
2019-04-28T10:18:06.185Z,67.12
2019-04-28T10:19:06.167Z,68.54
2019-04-28T10:20:06.169Z,69.56
2019-04-28T10:21:06.150Z,70.31
2019-04-28T10:22:06.135Z,69.80
2019-04-28T10:23:06.136Z,68.30
2019-04-28T10:24:06.114Z,68.20
2019-04-28T10:25:06.105Z,67.38
2019-04-28T10:26:06.092Z,68.40
2019-04-28T10:27:06.086Z,68.68
2019-04-28T10:28:06.093Z,68.68
2019-04-28T10:29:06.063Z,69.19
2019-04-28T10:30:06.053Z,69.49
2019-04-28T10:31:06.051Z,69.49
2019-04-28T10:32:06.044Z,68.24
2019-04-28T10:33:06.029Z,68.54
2019-04-28T10:34:06.009Z,67.60
2019-04-28T10:35:05.991Z,69.53
2019-04-28T10:36:06.002Z,68.10
2019-04-28T10:37:05.978Z,64.95
2019-04-28T10:38:05.973Z,64.26
2019-04-28T10:39:05.971Z,64.47
2019-04-28T10:40:05.947Z,64.78
2019-04-28T10:41:05.928Z,67.43
2019-04-28T10:42:05.939Z,67.22
2019-04-28T10:43:05.919Z,66.38
2019-04-28T10:44:08.505Z,66.38
2019-04-28T10:45:05.907Z,65.63
2019-04-28T10:46:05.894Z,66.44
2019-04-28T10:47:05.875Z,65.02
2019-04-28T10:48:05.914Z,65.19
2019-04-28T10:49:05.848Z,66.11
2019-04-28T10:50:05.844Z,65.70
2019-04-28T10:51:05.833Z,66.52
2019-04-28T10:52:05.812Z,65.06
2019-04-28T10:53:05.806Z,65.26
2019-04-28T10:54:05.792Z,63.71
2019-04-28T10:55:05.802Z,62.79
2019-04-28T10:56:05.774Z,63.58
2019-04-28T10:57:05.762Z,63.95
2019-04-28T10:58:05.760Z,62.53
2019-04-28T10:59:05.749Z,62.84
2019-04-28T11:00:05.732Z,62.20
2019-04-28T11:01:05.742Z,61.52
2019-04-28T11:02:05.728Z,62.53
2019-04-28T11:03:05.699Z,61.79
2019-04-28T11:04:05.699Z,65.45
2019-04-28T11:05:08.755Z,61.99
2019-04-28T11:06:05.679Z,62.20
2019-04-28T11:07:05.659Z,62.91
2019-04-28T11:08:05.647Z,62.23
2019-04-28T11:09:05.638Z,63.04
2019-04-28T11:10:05.625Z,63.07
2019-04-28T11:11:05.687Z,63.28
2019-04-28T11:12:05.606Z,64.90
2019-04-28T11:13:05.586Z,65.30
2019-04-28T11:14:05.586Z,63.98
2019-04-28T11:15:05.565Z,64.29
2019-04-28T11:16:05.575Z,67.13
2019-04-28T11:17:05.544Z,64.59
2019-04-28T11:18:05.536Z,65.33
2019-04-28T11:19:05.633Z,65.44
2019-04-28T11:20:05.522Z,66.05
2019-04-28T11:21:05.502Z,67.71
2019-04-28T11:22:05.509Z,65.67
2019-04-28T11:23:05.481Z,66.18
2019-04-28T11:24:05.484Z,67.80
2019-04-28T11:25:05.465Z,67.19
2019-04-28T11:26:05.461Z,68.41
2019-04-28T11:27:05.432Z,70.45
2019-04-28T11:28:05.431Z,68.82
2019-04-28T11:29:05.427Z,70.35
2019-04-28T11:30:05.422Z,70.14
2019-04-28T11:31:05.409Z,69.60
2019-04-28T11:32:05.388Z,70.14
2019-04-28T11:33:05.370Z,68.21
2019-04-28T11:34:05.366Z,68.32
2019-04-28T11:35:05.361Z,67.19
2019-04-28T11:36:05.340Z,67.67
2019-04-28T11:37:05.328Z,66.55
2019-04-28T11:38:05.325Z,68.69
2019-04-28T11:39:05.319Z,68.66
2019-04-28T11:40:05.315Z,67.44
2019-04-28T11:41:05.290Z,68.01
2019-04-28T11:42:05.288Z,66.29
2019-04-28T11:43:05.285Z,68.93
2019-04-28T11:44:05.256Z,67.00
2019-04-28T11:45:05.244Z,68.73
2019-04-28T11:46:05.234Z,66.29
2019-04-28T11:47:05.234Z,65.65
2019-04-28T11:48:05.223Z,65.24
2019-04-28T11:49:05.202Z,61.79
2019-04-28T11:50:05.203Z,64.00
2019-04-28T11:51:05.181Z,64.81
2019-04-28T11:52:05.174Z,65.01
2019-04-28T11:53:05.183Z,63.06
2019-04-28T11:54:05.141Z,61.97
2019-04-28T11:55:05.152Z,62.48
2019-04-28T11:56:05.122Z,59.48
2019-04-28T11:57:05.120Z,61.95
2019-04-28T11:58:05.114Z,61.95
2019-04-28T11:59:05.089Z,63.34
2019-04-28T12:00:05.109Z,62.94
2019-04-28T12:01:05.073Z,62.84
2019-04-28T12:02:05.069Z,63.24
2019-04-28T12:03:05.053Z,62.33
2019-04-28T12:04:05.037Z,63.11
2019-04-28T12:05:05.045Z,63.01
2019-04-28T12:06:05.035Z,61.66
2019-04-28T12:07:05.000Z,60.85
2019-04-28T12:08:05.006Z,59.81
2019-04-28T12:09:04.986Z,60.89
2019-04-28T12:10:05.910Z,60.69
2019-04-28T12:11:04.974Z,60.39
2019-04-28T12:12:04.963Z,61.40
2019-04-28T12:13:04.946Z,58.76
2019-04-28T12:14:04.932Z,59.48
2019-04-28T12:15:04.923Z,59.85
2019-04-28T12:16:04.923Z,57.24
2019-04-28T12:17:04.903Z,57.02
2019-04-28T12:18:04.896Z,57.93
2019-04-28T12:19:04.872Z,57.83
2019-04-28T12:20:04.862Z,57.62
2019-04-28T12:21:04.877Z,57.32
2019-04-28T12:22:04.855Z,58.00
2019-04-28T12:23:04.833Z,58.11
2019-04-28T12:24:04.830Z,58.61
2019-04-28T12:25:04.811Z,59.12
2019-04-28T12:26:04.821Z,58.28
2019-04-28T12:27:04.799Z,57.65
2019-04-28T12:28:04.784Z,54.61
2019-04-28T12:29:04.782Z,55.93
2019-04-28T12:30:04.777Z,56.63
2019-04-28T12:31:04.749Z,56.30
2019-04-28T12:32:04.744Z,53.88
2019-04-28T12:33:04.728Z,53.14
2019-04-28T12:34:04.726Z,54.46
2019-04-28T12:35:04.708Z,52.44
2019-04-28T12:36:04.699Z,51.73
2019-04-28T12:37:04.707Z,52.14
2019-04-28T12:38:04.676Z,50.92
2019-04-28T12:39:04.669Z,49.30
2019-04-28T12:40:04.646Z,52.54
2019-04-28T12:41:04.638Z,51.93
2019-04-28T12:42:04.625Z,52.67
2019-04-28T12:43:04.614Z,53.17
2019-04-28T12:44:04.637Z,51.03
2019-04-28T12:45:04.597Z,49.33
2019-04-28T12:46:04.592Z,50.87
2019-04-28T12:47:04.573Z,51.68
2019-04-28T12:48:04.565Z,51.48
2019-04-28T12:49:04.572Z,52.89
2019-04-28T12:50:04.532Z,52.28
2019-04-28T12:51:04.523Z,52.28
2019-04-28T12:52:04.521Z,52.31